sensor_id;sensor_type;location;lat;lon;timestamp;pressure;altitude;pressure_sealevel;temperature;humidity
54308;BME280;40208;39.778;2.710;2023-02-28T00:00:48;100829.72;;;6.56;100.00
54308;BME280;40208;39.778;2.710;2023-02-28T00:03:32;100833.22;;;6.56;100.00
54308;BME280;40208;39.778;2.710;2023-02-28T00:06:19;100829.88;;;6.50;100.00
54308;BME280;40208;39.778;2.710;2023-02-28T00:09:05;100823.63;;;6.54;100.00
54308;BME280;40208;39.778;2.710;2023-02-28T00:11:50;100820.09;;;6.55;100.00
54308;BME280;40208;39.778;2.710;2023-02-28T00:14:34;100827.19;;;6.53;100.00
54308;BME280;40208;39.778;2.710;2023-02-28T00:17:19;100835.72;;;6.61;100.00
54308;BME280;40208;39.778;2.710;2023-02-28T00:20:05;100820.47;;;6.41;100.00
54308;BME280;40208;39.778;2.710;2023-02-28T00:22:54;100823.63;;;6.54;100.00
54308;BME280;40208;39.778;2.710;2023-02-28T00:25:39;100813.81;;;6.26;100.00
54308;BME280;40208;39.778;2.710;2023-02-28T00:28:23;100815.38;;;6.33;100.00
54308;BME280;40208;39.778;2.710;2023-02-28T00:31:08;100807.56;;;6.30;100.00
54308;BME280;40208;39.778;2.710;2023-02-28T00:33:52;100812.84;;;6.30;100.00
54308;BME280;40208;39.778;2.710;2023-02-28T00:36:37;100817.22;;;6.31;100.00
54308;BME280;40208;39.778;2.710;2023-02-28T00:39:22;100806.75;;;6.28;100.00
54308;BME280;40208;39.778;2.710;2023-02-28T00:42:07;100798.81;;;6.30;100.00
54308;BME280;40208;39.778;2.710;2023-02-28T00:44:52;100800.69;;;6.25;100.00
54308;BME280;40208;39.778;2.710;2023-02-28T00:47:37;100790.75;;;6.36;100.00
54308;BME280;40208;39.778;2.710;2023-02-28T00:50:22;100792.63;;;6.31;100.00
54308;BME280;40208;39.778;2.710;2023-02-28T00:53:06;100799.75;;;6.27;100.00
54308;BME280;40208;39.778;2.710;2023-02-28T00:55:51;100814.00;;;6.20;100.00
54308;BME280;40208;39.778;2.710;2023-02-28T00:58:36;100793.53;;;6.30;100.00
54308;BME280;40208;39.778;2.710;2023-02-28T01:01:21;100803.25;;;6.28;100.00
54308;BME280;40208;39.778;2.710;2023-02-28T01:04:05;100803.44;;;6.22;100.00
54308;BME280;40208;39.778;2.710;2023-02-28T01:06:50;100811.94;;;6.31;100.00
54308;BME280;40208;39.778;2.710;2023-02-28T01:09:34;100802.28;;;6.32;100.00
54308;BME280;40208;39.778;2.710;2023-02-28T01:12:19;100803.16;;;6.31;100.00
54308;BME280;40208;39.778;2.710;2023-02-28T01:15:04;100798.59;;;6.37;100.00
54308;BME280;40208;39.778;2.710;2023-02-28T01:17:49;100802.63;;;6.51;100.00
54308;BME280;40208;39.778;2.710;2023-02-28T01:20:35;100818.56;;;6.46;100.00
54308;BME280;40208;39.778;2.710;2023-02-28T01:23:20;100812.91;;;6.60;100.00
54308;BME280;40208;39.778;2.710;2023-02-28T01:26:08;100798.66;;;6.67;100.00
54308;BME280;40208;39.778;2.710;2023-02-28T01:28:54;100812.09;;;6.58;100.00
54308;BME280;40208;39.778;2.710;2023-02-28T01:31:38;100812.66;;;6.69;100.00
54308;BME280;40208;39.778;2.710;2023-02-28T01:34:23;100814.72;;;6.58;100.00
54308;BME280;40208;39.778;2.710;2023-02-28T01:37:07;100800.03;;;6.49;100.00
54308;BME280;40208;39.778;2.710;2023-02-28T01:39:52;100811.00;;;6.34;100.00
54308;BME280;40208;39.778;2.710;2023-02-28T01:42:37;100794.56;;;6.24;100.00
54308;BME280;40208;39.778;2.710;2023-02-28T01:45:23;100800.00;;;6.18;100.00
54308;BME280;40208;39.778;2.710;2023-02-28T01:48:09;100815.72;;;6.21;100.00
54308;BME280;40208;39.778;2.710;2023-02-28T01:50:55;100805.41;;;6.45;100.00
54308;BME280;40208;39.778;2.710;2023-02-28T01:53:42;100810.47;;;6.52;100.00
54308;BME280;40208;39.778;2.710;2023-02-28T01:56:29;100807.28;;;6.41;100.00
54308;BME280;40208;39.778;2.710;2023-02-28T01:59:17;100796.78;;;6.40;100.00
54308;BME280;40208;39.778;2.710;2023-02-28T02:02:06;100794.09;;;6.41;100.00
54308;BME280;40208;39.778;2.710;2023-02-28T02:04:55;100811.13;;;6.29;100.00
54308;BME280;40208;39.778;2.710;2023-02-28T02:07:41;100820.63;;;6.35;100.00
54308;BME280;40208;39.778;2.710;2023-02-28T02:10:29;100820.47;;;6.41;100.00
54308;BME280;40208;39.778;2.710;2023-02-28T02:16:04;100799.06;;;6.19;100.00
54308;BME280;40208;39.778;2.710;2023-02-28T02:18:53;100791.13;;;6.22;100.00
54308;BME280;40208;39.778;2.710;2023-02-28T02:30:28;100797.94;;;6.29;100.00
54308;BME280;40208;39.778;2.710;2023-02-28T02:41:53;100782.06;;;6.31;100.00
54308;BME280;40208;39.778;2.710;2023-02-28T02:44:48;100777.13;;;6.19;100.00
54308;BME280;40208;39.778;2.710;2023-02-28T02:47:35;100780.75;;;6.14;100.00
54308;BME280;40208;39.778;2.710;2023-02-28T02:50:22;100800.69;;;6.25;100.00
54308;BME280;40208;39.778;2.710;2023-02-28T02:53:08;100792.59;;;6.32;100.00
54308;BME280;40208;39.778;2.710;2023-02-28T02:55:54;100785.66;;;6.28;100.00
54308;BME280;40208;39.778;2.710;2023-02-28T02:58:40;100779.56;;;6.26;100.00
54308;BME280;40208;39.778;2.710;2023-02-28T03:01:26;100779.00;;;6.15;100.00
54308;BME280;40208;39.778;2.710;2023-02-28T03:04:15;100794.47;;;6.27;100.00
54308;BME280;40208;39.778;2.710;2023-02-28T03:07:02;100790.03;;;6.29;100.00
54308;BME280;40208;39.778;2.710;2023-02-28T03:09:51;100787.31;;;6.32;100.00
54308;BME280;40208;39.778;2.710;2023-02-28T03:12:41;100783.94;;;6.27;100.00
54308;BME280;40208;39.778;2.710;2023-02-28T03:15:32;100793.41;;;6.34;100.00
54308;BME280;40208;39.778;2.710;2023-02-28T03:24:11;100788.75;;;6.11;100.00
54308;BME280;40208;39.778;2.710;2023-02-28T03:27:11;100788.66;;;6.14;100.00
54308;BME280;40208;39.778;2.710;2023-02-28T03:35:53;100794.56;;;6.24;100.00
54308;BME280;40208;39.778;2.710;2023-02-28T03:41:26;100780.91;;;6.10;100.00
54308;BME280;40208;39.778;2.710;2023-02-28T03:44:15;100791.38;;;6.11;100.00
54308;BME280;40208;39.778;2.710;2023-02-28T03:47:04;100759.56;;;6.19;100.00
54308;BME280;40208;39.778;2.710;2023-02-28T03:52:44;100756.41;;;6.06;100.00
54308;BME280;40208;39.778;2.710;2023-02-28T03:55:32;100749.31;;;6.08;100.00
54308;BME280;40208;39.778;2.710;2023-02-28T04:01:08;100741.28;;;6.13;100.00
54308;BME280;40208;39.778;2.710;2023-02-28T04:03:54;100740.31;;;6.17;100.00
54308;BME280;40208;39.778;2.710;2023-02-28T04:06:39;100736.63;;;6.23;100.00
54308;BME280;40208;39.778;2.710;2023-02-28T04:09:25;100742.19;;;6.12;100.00
54308;BME280;40208;39.778;2.710;2023-02-28T04:12:09;100735.03;;;6.17;100.00
54308;BME280;40208;39.778;2.710;2023-02-28T04:14:55;100727.28;;;6.11;100.00
54308;BME280;40208;39.778;2.710;2023-02-28T04:17:40;100729.91;;;6.12;100.00
54308;BME280;40208;39.778;2.710;2023-02-28T04:20:24;100597.09;;;5.23;100.00
54308;BME280;40208;39.778;2.710;2023-02-28T04:23:09;100742.13;;;6.15;100.00
54308;BME280;40208;39.778;2.710;2023-02-28T04:25:54;100736.03;;;6.13;100.00
54308;BME280;40208;39.778;2.710;2023-02-28T04:28:39;100730.16;;;6.03;100.00
54308;BME280;40208;39.778;2.710;2023-02-28T04:31:24;100745.59;;;6.15;100.00
54308;BME280;40208;39.778;2.710;2023-02-28T04:34:09;100763.34;;;6.09;100.00
54308;BME280;40208;39.778;2.710;2023-02-28T04:36:54;100745.97;;;6.02;100.00
54308;BME280;40208;39.778;2.710;2023-02-28T04:39:40;100729.41;;;5.98;100.00
54308;BME280;40208;39.778;2.710;2023-02-28T04:42:25;100776.81;;;5.98;100.00
54308;BME280;40208;39.778;2.710;2023-02-28T04:45:10;100748.72;;;5.99;100.00
54308;BME280;40208;39.778;2.710;2023-02-28T04:47:55;100776.88;;;5.95;100.00
54308;BME280;40208;39.778;2.710;2023-02-28T04:50:39;100759.25;;;5.99;100.00
54308;BME280;40208;39.778;2.710;2023-02-28T04:53:24;100765.38;;;5.99;100.00
54308;BME280;40208;39.778;2.710;2023-02-28T04:56:13;100769.78;;;5.99;100.00
54308;BME280;40208;39.778;2.710;2023-02-28T04:58:58;100782.13;;;5.97;100.00
54308;BME280;40208;39.778;2.710;2023-02-28T05:01:45;100766.72;;;6.14;100.00
54308;BME280;40208;39.778;2.710;2023-02-28T05:04:30;100753.50;;;6.15;100.00
54308;BME280;40208;39.778;2.710;2023-02-28T05:07:18;100742.03;;;6.18;100.00
54308;BME280;40208;39.778;2.710;2023-02-28T05:10:03;100732.88;;;6.31;100.00
54308;BME280;40208;39.778;2.710;2023-02-28T05:12:48;100747.53;;;6.40;100.00
54308;BME280;40208;39.778;2.710;2023-02-28T05:15:32;100734.16;;;6.48;100.00
54308;BME280;40208;39.778;2.710;2023-02-28T05:18:17;100732.06;;;6.59;100.00
54308;BME280;40208;39.778;2.710;2023-02-28T05:21:02;100732.47;;;6.75;100.00
54308;BME280;40208;39.778;2.710;2023-02-28T05:23:47;100726.63;;;6.65;100.00
54308;BME280;40208;39.778;2.710;2023-02-28T05:26:34;100727.16;;;6.76;100.00
54308;BME280;40208;39.778;2.710;2023-02-28T05:29:19;100721.97;;;6.73;100.00
54308;BME280;40208;39.778;2.710;2023-02-28T05:32:04;100703.59;;;6.70;100.00
54308;BME280;40208;39.778;2.710;2023-02-28T05:34:48;100721.44;;;6.62;100.00
54308;BME280;40208;39.778;2.710;2023-02-28T05:37:33;100728.91;;;6.76;100.00
54308;BME280;40208;39.778;2.710;2023-02-28T05:40:18;100726.81;;;6.87;100.00
54308;BME280;40208;39.778;2.710;2023-02-28T05:43:07;100759.06;;;6.97;100.00
54308;BME280;40208;39.778;2.710;2023-02-28T05:45:51;100727.66;;;6.89;100.00
54308;BME280;40208;39.778;2.710;2023-02-28T05:48:37;100704.47;;;6.99;100.00
54308;BME280;40208;39.778;2.710;2023-02-28T05:51:22;100724.00;;;6.93;100.00
54308;BME280;40208;39.778;2.710;2023-02-28T05:54:07;100740.66;;;6.95;100.00
54308;BME280;40208;39.778;2.710;2023-02-28T05:56:52;100741.31;;;7.02;100.00
54308;BME280;40208;39.778;2.710;2023-02-28T05:59:36;100739.31;;;7.10;100.00
54308;BME280;40208;39.778;2.710;2023-02-28T06:02:24;100774.34;;;7.15;100.00
54308;BME280;40208;39.778;2.710;2023-02-28T06:05:15;100742.47;;;7.21;100.00
54308;BME280;40208;39.778;2.710;2023-02-28T06:08:00;100769.34;;;7.34;100.00
54308;BME280;40208;39.778;2.710;2023-02-28T06:10:45;100829.34;;;7.29;100.00
54308;BME280;40208;39.778;2.710;2023-02-28T06:13:30;100760.22;;;7.16;100.00
54308;BME280;40208;39.778;2.710;2023-02-28T06:16:14;100766.28;;;7.20;100.00
54308;BME280;40208;39.778;2.710;2023-02-28T06:19:00;100786.59;;;7.16;100.00
54308;BME280;40208;39.778;2.710;2023-02-28T06:21:45;100796.13;;;7.22;100.00
54308;BME280;40208;39.778;2.710;2023-02-28T06:24:33;100794.25;;;7.26;100.00
54308;BME280;40208;39.778;2.710;2023-02-28T06:27:17;100782.97;;;7.20;100.00
54308;BME280;40208;39.778;2.710;2023-02-28T06:30:04;100772.75;;;7.10;100.00
54308;BME280;40208;39.778;2.710;2023-02-28T06:32:49;100781.41;;;7.15;100.00
54308;BME280;40208;39.778;2.710;2023-02-28T06:35:34;100778.91;;;7.10;100.00
54308;BME280;40208;39.778;2.710;2023-02-28T06:38:20;100749.63;;;7.18;100.00
54308;BME280;40208;39.778;2.710;2023-02-28T06:41:05;100777.28;;;7.33;100.00
54308;BME280;40208;39.778;2.710;2023-02-28T06:43:50;100831.19;;;7.26;100.00
54308;BME280;40208;39.778;2.710;2023-02-28T06:46:35;100794.50;;;7.18;100.00
54308;BME280;40208;39.778;2.710;2023-02-28T06:49:20;100786.31;;;7.26;100.00
54308;BME280;40208;39.778;2.710;2023-02-28T06:52:04;100808.38;;;7.25;100.00
54308;BME280;40208;39.778;2.710;2023-02-28T06:54:49;100820.88;;;7.18;100.00
54308;BME280;40208;39.778;2.710;2023-02-28T06:57:44;100776.69;;;7.25;100.00
54308;BME280;40208;39.778;2.710;2023-02-28T07:00:28;100799.44;;;7.29;100.00
54308;BME280;40208;39.778;2.710;2023-02-28T07:03:13;100819.16;;;7.17;100.00
54308;BME280;40208;39.778;2.710;2023-02-28T07:05:59;100840.31;;;7.15;100.00
54308;BME280;40208;39.778;2.710;2023-02-28T07:08:44;100842.47;;;7.31;100.00
54308;BME280;40208;39.778;2.710;2023-02-28T07:11:29;100868.44;;;7.16;100.00
54308;BME280;40208;39.778;2.710;2023-02-28T07:14:14;100816.19;;;7.28;100.00
54308;BME280;40208;39.778;2.710;2023-02-28T07:16:58;100827.69;;;7.25;100.00
54308;BME280;40208;39.778;2.710;2023-02-28T07:19:43;100826.88;;;7.23;100.00
54308;BME280;40208;39.778;2.710;2023-02-28T07:22:28;100824.34;;;7.20;100.00
54308;BME280;40208;39.778;2.710;2023-02-28T07:25:13;100816.00;;;7.34;100.00
54308;BME280;40208;39.778;2.710;2023-02-28T07:27:58;100825.75;;;7.32;100.00
54308;BME280;40208;39.778;2.710;2023-02-28T07:30:43;100854.22;;;7.50;100.00
54308;BME280;40208;39.778;2.710;2023-02-28T07:33:28;100803.94;;;7.53;100.00
54308;BME280;40208;39.778;2.710;2023-02-28T07:36:14;100846.91;;;7.58;100.00
54308;BME280;40208;39.778;2.710;2023-02-28T07:39:03;100810.72;;;7.62;100.00
54308;BME280;40208;39.778;2.710;2023-02-28T07:41:48;100838.16;;;7.56;100.00
54308;BME280;40208;39.778;2.710;2023-02-28T07:44:33;100767.53;;;7.63;100.00
54308;BME280;40208;39.778;2.710;2023-02-28T07:47:18;100862.56;;;7.64;100.00
54308;BME280;40208;39.778;2.710;2023-02-28T07:50:03;100863.53;;;7.62;100.00
54308;BME280;40208;39.778;2.710;2023-02-28T07:52:48;100869.78;;;7.59;100.00
54308;BME280;40208;39.778;2.710;2023-02-28T07:55:33;100860.81;;;7.63;100.00
54308;BME280;40208;39.778;2.710;2023-02-28T07:58:17;100886.13;;;7.71;100.00
54308;BME280;40208;39.778;2.710;2023-02-28T08:01:06;100870.53;;;7.63;100.00
54308;BME280;40208;39.778;2.710;2023-02-28T08:03:51;100899.34;;;7.71;100.00
54308;BME280;40208;39.778;2.710;2023-02-28T08:06:35;100902.09;;;7.68;100.00
54308;BME280;40208;39.778;2.710;2023-02-28T08:09:20;100911.72;;;7.69;100.00
54308;BME280;40208;39.778;2.710;2023-02-28T08:12:05;100907.28;;;7.71;100.00
54308;BME280;40208;39.778;2.710;2023-02-28T08:14:50;100892.25;;;7.73;100.00
54308;BME280;40208;39.778;2.710;2023-02-28T08:17:34;100879.97;;;7.72;100.00
54308;BME280;40208;39.778;2.710;2023-02-28T08:20:20;100903.47;;;7.79;100.00
54308;BME280;40208;39.778;2.710;2023-02-28T08:23:04;100912.16;;;7.83;100.00
54308;BME280;40208;39.778;2.710;2023-02-28T08:25:53;100907.94;;;7.77;100.00
54308;BME280;40208;39.778;2.710;2023-02-28T08:28:38;100928.41;;;7.71;100.00
54308;BME280;40208;39.778;2.710;2023-02-28T08:31:23;100911.13;;;7.60;100.00
54308;BME280;40208;39.778;2.710;2023-02-28T08:34:09;100930.19;;;7.70;100.00
54308;BME280;40208;39.778;2.710;2023-02-28T08:36:55;100918.66;;;7.73;100.00
54308;BME280;40208;39.778;2.710;2023-02-28T08:39:39;100935.19;;;7.79;100.00
54308;BME280;40208;39.778;2.710;2023-02-28T08:42:24;100932.41;;;7.84;100.00
54308;BME280;40208;39.778;2.710;2023-02-28T08:45:10;100933.41;;;7.80;100.00
54308;BME280;40208;39.778;2.710;2023-02-28T08:47:55;100942.44;;;7.73;100.00
54308;BME280;40208;39.778;2.710;2023-02-28T08:50:40;100959.00;;;7.78;100.00
54308;BME280;40208;39.778;2.710;2023-02-28T08:53:25;100966.03;;;7.79;100.00
54308;BME280;40208;39.778;2.710;2023-02-28T08:56:10;100951.03;;;7.79;100.00
54308;BME280;40208;39.778;2.710;2023-02-28T08:58:55;100949.13;;;7.84;100.00
54308;BME280;40208;39.778;2.710;2023-02-28T09:01:40;100973.75;;;7.85;100.00
54308;BME280;40208;39.778;2.710;2023-02-28T09:04:26;100974.66;;;7.85;100.00
54308;BME280;40208;39.778;2.710;2023-02-28T09:07:10;100988.88;;;7.80;100.00
54308;BME280;40208;39.778;2.710;2023-02-28T09:09:55;100966.09;;;7.76;100.00
54308;BME280;40208;39.778;2.710;2023-02-28T09:12:40;100973.84;;;7.82;100.00
54308;BME280;40208;39.778;2.710;2023-02-28T09:15:24;100980.84;;;7.83;100.00
54308;BME280;40208;39.778;2.710;2023-02-28T09:18:09;101003.75;;;7.84;100.00
54308;BME280;40208;39.778;2.710;2023-02-28T09:20:54;101015.28;;;7.81;100.00
54308;BME280;40208;39.778;2.710;2023-02-28T09:23:38;101010.88;;;7.80;100.00
54308;BME280;40208;39.778;2.710;2023-02-28T09:26:24;100997.06;;;7.72;100.00
54308;BME280;40208;39.778;2.710;2023-02-28T09:29:09;101004.63;;;7.83;100.00
54308;BME280;40208;39.778;2.710;2023-02-28T09:31:55;101028.41;;;7.83;100.00
54308;BME280;40208;39.778;2.710;2023-02-28T09:34:42;101003.66;;;7.87;100.00
54308;BME280;40208;39.778;2.710;2023-02-28T09:37:27;101023.13;;;7.83;100.00
54308;BME280;40208;39.778;2.710;2023-02-28T09:40:13;101038.09;;;7.84;100.00
54308;BME280;40208;39.778;2.710;2023-02-28T09:42:59;101058.38;;;7.83;100.00
54308;BME280;40208;39.778;2.710;2023-02-28T09:45:47;101022.09;;;7.89;100.00
54308;BME280;40208;39.778;2.710;2023-02-28T09:48:34;101029.25;;;7.85;100.00
54308;BME280;40208;39.778;2.710;2023-02-28T09:51:28;101076.75;;;7.88;100.00
54308;BME280;40208;39.778;2.710;2023-02-28T09:54:15;101059.81;;;7.94;100.00
54308;BME280;40208;39.778;2.710;2023-02-28T10:02:50;101058.16;;;7.91;100.00
54308;BME280;40208;39.778;2.710;2023-02-28T10:05:41;101060.88;;;7.88;100.00
54308;BME280;40208;39.778;2.710;2023-02-28T10:08:29;101048.41;;;7.93;100.00
54308;BME280;40208;39.778;2.710;2023-02-28T10:11:16;101065.22;;;7.91;100.00
54308;BME280;40208;39.778;2.710;2023-02-28T10:34:07;101059.31;;;8.11;100.00
54308;BME280;40208;39.778;2.710;2023-02-28T10:36:56;101034.53;;;7.85;100.00
54308;BME280;40208;39.778;2.710;2023-02-28T10:39:51;101073.63;;;8.03;100.00
54308;BME280;40208;39.778;2.710;2023-02-28T10:42:36;101063.31;;;7.94;100.00
54308;BME280;40208;39.778;2.710;2023-02-28T10:45:24;101078.81;;;8.06;100.00
54308;BME280;40208;39.778;2.710;2023-02-28T10:51:01;101037.66;;;7.68;100.00
54308;BME280;40208;39.778;2.710;2023-02-28T10:53:53;101080.00;;;7.96;100.00
54308;BME280;40208;39.778;2.710;2023-02-28T10:56:39;101108.00;;;8.03;100.00
54308;BME280;40208;39.778;2.710;2023-02-28T10:59:29;101123.88;;;8.02;100.00
54308;BME280;40208;39.778;2.710;2023-02-28T11:02:35;101066.50;;;7.76;100.00
54308;BME280;40208;39.778;2.710;2023-02-28T11:05:34;101093.72;;;7.79;100.00
54308;BME280;40208;39.778;2.710;2023-02-28T11:08:20;101136.06;;;8.07;100.00
54308;BME280;40208;39.778;2.710;2023-02-28T11:11:06;101138.06;;;7.99;100.00
54308;BME280;40208;39.778;2.710;2023-02-28T11:13:53;101114.94;;;7.76;100.00
54308;BME280;40208;39.778;2.710;2023-02-28T11:16:39;101098.56;;;7.63;100.00
54308;BME280;40208;39.778;2.710;2023-02-28T11:19:38;101158.09;;;8.08;100.00
54308;BME280;40208;39.778;2.710;2023-02-28T11:22:30;101083.50;;;7.67;100.00
54308;BME280;40208;39.778;2.710;2023-02-28T11:25:28;101143.53;;;7.93;100.00
54308;BME280;40208;39.778;2.710;2023-02-28T11:28:35;101145.25;;;7.94;100.00
54308;BME280;40208;39.778;2.710;2023-02-28T11:31:20;101161.91;;;7.98;100.00
54308;BME280;40208;39.778;2.710;2023-02-28T11:34:27;101176.81;;;8.00;100.00
54308;BME280;40208;39.778;2.710;2023-02-28T11:37:27;101113.28;;;7.72;100.00
54308;BME280;40208;39.778;2.710;2023-02-28T11:40:14;101137.28;;;7.96;100.00
54308;BME280;40208;39.778;2.710;2023-02-28T11:49:30;101167.31;;;7.93;100.00
54308;BME280;40208;39.778;2.710;2023-02-28T11:52:43;101017.00;;;7.21;100.00
54308;BME280;40208;39.778;2.710;2023-02-28T11:55:42;101169.63;;;8.05;100.00
54308;BME280;40208;39.778;2.710;2023-02-28T11:58:45;101154.69;;;8.04;100.00
54308;BME280;40208;39.778;2.710;2023-02-28T12:13:50;101158.53;;;7.93;100.00
54308;BME280;40208;39.778;2.710;2023-02-28T12:22:57;101159.63;;;7.85;100.00
54308;BME280;40208;39.778;2.710;2023-02-28T12:29:04;101169.75;;;8.01;100.00
54308;BME280;40208;39.778;2.710;2023-02-28T12:32:13;101158.78;;;8.15;100.00
54308;BME280;40208;39.778;2.710;2023-02-28T12:35:03;101185.19;;;8.16;100.00
54308;BME280;40208;39.778;2.710;2023-02-28T12:38:05;101138.84;;;8.03;100.00
54308;BME280;40208;39.778;2.710;2023-02-28T12:41:01;101145.66;;;8.12;100.00
54308;BME280;40208;39.778;2.710;2023-02-28T12:43:57;101148.25;;;8.13;100.00
54308;BME280;40208;39.778;2.710;2023-02-28T12:46:54;101128.94;;;7.80;100.00
54308;BME280;40208;39.778;2.710;2023-02-28T12:49:53;101168.63;;;8.10;100.00
54308;BME280;40208;39.778;2.710;2023-02-28T12:58:50;101109.78;;;7.72;100.00
54308;BME280;40208;39.778;2.710;2023-02-28T13:02:00;101183.66;;;8.07;100.00
54308;BME280;40208;39.778;2.710;2023-02-28T13:10:56;101124.22;;;7.91;100.00
54308;BME280;40208;39.778;2.710;2023-02-28T13:13:44;101176.16;;;8.23;100.00
54308;BME280;40208;39.778;2.710;2023-02-28T13:22:43;101173.31;;;8.29;100.00
54308;BME280;40208;39.778;2.710;2023-02-28T13:37:37;101123.59;;;7.81;100.00
54308;BME280;40208;39.778;2.710;2023-02-28T13:40:32;101126.19;;;7.83;100.00
54308;BME280;40208;39.778;2.710;2023-02-28T13:49:33;101175.81;;;8.04;100.00
54308;BME280;40208;39.778;2.710;2023-02-28T13:52:21;101183.47;;;8.14;100.00
54308;BME280;40208;39.778;2.710;2023-02-28T13:55:35;101184.22;;;8.19;100.00
54308;BME280;40208;39.778;2.710;2023-02-28T13:58:46;101195.75;;;8.16;100.00
54308;BME280;40208;39.778;2.710;2023-02-28T14:04:50;101203.50;;;8.22;100.00
54308;BME280;40208;39.778;2.710;2023-02-28T14:07:49;101215.13;;;8.17;100.00
54308;BME280;40208;39.778;2.710;2023-02-28T14:10:43;101194.84;;;8.17;100.00
54308;BME280;40208;39.778;2.710;2023-02-28T14:13:45;101167.44;;;7.89;100.00
54308;BME280;40208;39.778;2.710;2023-02-28T14:16:40;101220.44;;;8.15;100.00
54308;BME280;40208;39.778;2.710;2023-02-28T14:19:32;101209.00;;;8.15;100.00
54308;BME280;40208;39.778;2.710;2023-02-28T14:25:22;101200.97;;;8.18;100.00
54308;BME280;40208;39.778;2.710;2023-02-28T14:28:16;101231.72;;;8.22;100.00
54308;BME280;40208;39.778;2.710;2023-02-28T14:37:04;101198.13;;;7.94;100.00
54308;BME280;40208;39.778;2.710;2023-02-28T14:39:50;101226.59;;;8.16;100.00
54308;BME280;40208;39.778;2.710;2023-02-28T14:42:37;101197.28;;;7.92;100.00
54308;BME280;40208;39.778;2.710;2023-02-28T14:45:33;101244.28;;;8.14;100.00
54308;BME280;40208;39.778;2.710;2023-02-28T14:48:19;101226.06;;;8.04;100.00
54308;BME280;40208;39.778;2.710;2023-02-28T14:51:05;101237.16;;;8.16;100.00
54308;BME280;40208;39.778;2.710;2023-02-28T14:53:55;101241.63;;;8.14;100.00
54308;BME280;40208;39.778;2.710;2023-02-28T14:56:41;101205.47;;;7.83;100.00
54308;BME280;40208;39.778;2.710;2023-02-28T14:59:34;101257.59;;;8.11;100.00
54308;BME280;40208;39.778;2.710;2023-02-28T15:02:25;101259.34;;;8.12;100.00
54308;BME280;40208;39.778;2.710;2023-02-28T15:08:06;101274.16;;;8.17;100.00
54308;BME280;40208;39.778;2.710;2023-02-28T15:13:47;101206.16;;;7.90;100.00
54308;BME280;40208;39.778;2.710;2023-02-28T15:16:41;101269.91;;;8.12;100.00
54308;BME280;40208;39.778;2.710;2023-02-28T15:19:34;101179.72;;;7.58;100.00
54308;BME280;40208;39.778;2.710;2023-02-28T15:22:28;101237.81;;;7.93;100.00
54308;BME280;40208;39.778;2.710;2023-02-28T15:25:20;101238.81;;;7.89;100.00
54308;BME280;40208;39.778;2.710;2023-02-28T15:28:14;101223.41;;;7.72;100.00
54308;BME280;40208;39.778;2.710;2023-02-28T15:31:03;101271.34;;;7.91;100.00
54308;BME280;40208;39.778;2.710;2023-02-28T15:34:05;101250.13;;;7.94;100.00
54308;BME280;40208;39.778;2.710;2023-02-28T15:36:50;101246.69;;;7.90;100.00
54308;BME280;40208;39.778;2.710;2023-02-28T15:39:41;101270.16;;;8.02;100.00
54308;BME280;40208;39.778;2.710;2023-02-28T15:42:29;101201.31;;;7.74;100.00
54308;BME280;40208;39.778;2.710;2023-02-28T15:45:51;101275.13;;;8.13;100.00
54308;BME280;40208;39.778;2.710;2023-02-28T15:48:43;101278.84;;;8.06;100.00
54308;BME280;40208;39.778;2.710;2023-02-28T15:51:33;101216.69;;;7.93;100.00
54308;BME280;40208;39.778;2.710;2023-02-28T15:54:28;101212.59;;;7.81;100.00
54308;BME280;40208;39.778;2.710;2023-02-28T15:57:25;101225.56;;;7.90;100.00
54308;BME280;40208;39.778;2.710;2023-02-28T16:00:15;101228.25;;;7.87;100.00
54308;BME280;40208;39.778;2.710;2023-02-28T16:03:01;101239.81;;;7.83;100.00
54308;BME280;40208;39.778;2.710;2023-02-28T16:05:45;101210.81;;;7.81;100.00
54308;BME280;40208;39.778;2.710;2023-02-28T16:08:30;101284.00;;;8.12;100.00
54308;BME280;40208;39.778;2.710;2023-02-28T16:11:15;101300.59;;;8.17;100.00
54308;BME280;40208;39.778;2.710;2023-02-28T16:14:00;101290.88;;;8.18;100.00
54308;BME280;40208;39.778;2.710;2023-02-28T16:16:48;101247.44;;;7.95;100.00
54308;BME280;40208;39.778;2.710;2023-02-28T16:19:33;101270.06;;;8.05;100.00
54308;BME280;40208;39.778;2.710;2023-02-28T16:22:18;101292.91;;;8.08;100.00
54308;BME280;40208;39.778;2.710;2023-02-28T16:25:04;101281.81;;;7.95;100.00
54308;BME280;40208;39.778;2.710;2023-02-28T16:27:52;101233.09;;;7.71;100.00
54308;BME280;40208;39.778;2.710;2023-02-28T16:30:45;101302.41;;;8.15;100.00
54308;BME280;40208;39.778;2.710;2023-02-28T16:33:33;101314.09;;;8.06;100.00
54308;BME280;40208;39.778;2.710;2023-02-28T16:36:21;101307.91;;;8.07;100.00
54308;BME280;40208;39.778;2.710;2023-02-28T16:39:07;101256.81;;;7.73;100.00
54308;BME280;40208;39.778;2.710;2023-02-28T16:41:52;101322.41;;;7.93;100.00
54308;BME280;40208;39.778;2.710;2023-02-28T16:44:37;101258.69;;;7.69;100.00
54308;BME280;40208;39.778;2.710;2023-02-28T16:47:23;101302.72;;;8.04;100.00
54308;BME280;40208;39.778;2.710;2023-02-28T16:50:26;101297.34;;;8.06;100.00
54308;BME280;40208;39.778;2.710;2023-02-28T16:53:11;101279.03;;;8.00;100.00
54308;BME280;40208;39.778;2.710;2023-02-28T16:55:56;101280.88;;;7.96;100.00
54308;BME280;40208;39.778;2.710;2023-02-28T16:58:41;101261.16;;;7.75;100.00
54308;BME280;40208;39.778;2.710;2023-02-28T17:01:25;101316.44;;;8.19;100.00
54308;BME280;40208;39.778;2.710;2023-02-28T17:04:19;101254.91;;;7.79;100.00
54308;BME280;40208;39.778;2.710;2023-02-28T17:07:16;101277.34;;;7.97;100.00
54308;BME280;40208;39.778;2.710;2023-02-28T17:10:01;101287.59;;;8.10;100.00